sensor_id;sensor_type;location;lat;lon;timestamp;temperature;humidity
7254;DHT22;4060;49.186;9.226;2024-01-07T00:00:05;9.60;74.70
7254;DHT22;4060;49.186;9.226;2024-01-07T00:02:37;9.70;74.80
7254;DHT22;4060;49.186;9.226;2024-01-07T00:05:07;9.60;74.70
7254;DHT22;4060;49.186;9.226;2024-01-07T00:07:36;9.60;74.70
7254;DHT22;4060;49.186;9.226;2024-01-07T00:10:05;9.60;74.60
7254;DHT22;4060;49.186;9.226;2024-01-07T00:12:36;9.60;74.70
7254;DHT22;4060;49.186;9.226;2024-01-07T00:15:06;9.60;74.70
7254;DHT22;4060;49.186;9.226;2024-01-07T00:17:38;9.60;74.60
7254;DHT22;4060;49.186;9.226;2024-01-07T00:20:08;9.60;74.70
7254;DHT22;4060;49.186;9.226;2024-01-07T00:22:37;9.60;74.70
7254;DHT22;4060;49.186;9.226;2024-01-07T00:25:07;9.60;74.70
7254;DHT22;4060;49.186;9.226;2024-01-07T00:27:37;9.60;74.60
7254;DHT22;4060;49.186;9.226;2024-01-07T00:30:07;9.60;74.70
7254;DHT22;4060;49.186;9.226;2024-01-07T00:32:38;9.60;74.70
7254;DHT22;4060;49.186;9.226;2024-01-07T00:35:07;9.60;74.70
7254;DHT22;4060;49.186;9.226;2024-01-07T00:37:36;9.60;74.70
7254;DHT22;4060;49.186;9.226;2024-01-07T00:40:06;9.60;74.70
7254;DHT22;4060;49.186;9.226;2024-01-07T00:42:35;9.60;74.70
7254;DHT22;4060;49.186;9.226;2024-01-07T00:45:05;9.60;74.70
7254;DHT22;4060;49.186;9.226;2024-01-07T00:47:34;9.70;74.80
7254;DHT22;4060;49.186;9.226;2024-01-07T00:50:07;9.60;74.70
7254;DHT22;4060;49.186;9.226;2024-01-07T00:52:36;9.60;74.70
7254;DHT22;4060;49.186;9.226;2024-01-07T00:55:06;9.60;74.70
7254;DHT22;4060;49.186;9.226;2024-01-07T00:57:35;9.60;74.80
7254;DHT22;4060;49.186;9.226;2024-01-07T01:00:06;9.60;74.70
7254;DHT22;4060;49.186;9.226;2024-01-07T01:02:37;9.60;74.80
7254;DHT22;4060;49.186;9.226;2024-01-07T01:05:08;9.60;74.80
7254;DHT22;4060;49.186;9.226;2024-01-07T01:07:37;9.60;74.70
7254;DHT22;4060;49.186;9.226;2024-01-07T01:10:07;9.60;74.80
7254;DHT22;4060;49.186;9.226;2024-01-07T01:12:37;9.60;74.70
7254;DHT22;4060;49.186;9.226;2024-01-07T01:15:06;9.60;74.70
7254;DHT22;4060;49.186;9.226;2024-01-07T01:17:35;9.60;74.70
7254;DHT22;4060;49.186;9.226;2024-01-07T01:20:07;9.60;74.80
7254;DHT22;4060;49.186;9.226;2024-01-07T01:22:37;9.60;74.80
7254;DHT22;4060;49.186;9.226;2024-01-07T01:25:07;9.60;74.80
7254;DHT22;4060;49.186;9.226;2024-01-07T01:27:37;9.60;74.70
7254;DHT22;4060;49.186;9.226;2024-01-07T01:30:07;9.60;74.80
7254;DHT22;4060;49.186;9.226;2024-01-07T01:32:37;9.60;74.70
7254;DHT22;4060;49.186;9.226;2024-01-07T01:35:09;9.60;74.70
7254;DHT22;4060;49.186;9.226;2024-01-07T01:37:38;9.60;74.70
7254;DHT22;4060;49.186;9.226;2024-01-07T01:40:08;9.60;74.80
7254;DHT22;4060;49.186;9.226;2024-01-07T01:42:37;9.60;74.80
7254;DHT22;4060;49.186;9.226;2024-01-07T01:45:06;9.60;74.80
7254;DHT22;4060;49.186;9.226;2024-01-07T01:47:36;9.60;74.80
7254;DHT22;4060;49.186;9.226;2024-01-07T01:50:09;9.60;74.90
7254;DHT22;4060;49.186;9.226;2024-01-07T01:52:39;9.60;74.80
7254;DHT22;4060;49.186;9.226;2024-01-07T01:55:09;9.60;74.80
7254;DHT22;4060;49.186;9.226;2024-01-07T01:57:38;9.60;74.80
7254;DHT22;4060;49.186;9.226;2024-01-07T02:00:08;9.60;74.80
7254;DHT22;4060;49.186;9.226;2024-01-07T02:02:38;9.60;74.80
7254;DHT22;4060;49.186;9.226;2024-01-07T02:05:09;9.60;74.80
7254;DHT22;4060;49.186;9.226;2024-01-07T02:07:40;9.60;74.80
7254;DHT22;4060;49.186;9.226;2024-01-07T02:10:10;9.60;74.80
7254;DHT22;4060;49.186;9.226;2024-01-07T02:12:39;9.60;74.80
7254;DHT22;4060;49.186;9.226;2024-01-07T02:15:09;9.60;74.80
7254;DHT22;4060;49.186;9.226;2024-01-07T02:17:38;9.60;74.80
7254;DHT22;4060;49.186;9.226;2024-01-07T02:20:09;9.60;74.80
7254;DHT22;4060;49.186;9.226;2024-01-07T02:22:38;9.60;74.80
7254;DHT22;4060;49.186;9.226;2024-01-07T02:25:10;9.60;74.80
7254;DHT22;4060;49.186;9.226;2024-01-07T02:27:39;9.60;74.70
7254;DHT22;4060;49.186;9.226;2024-01-07T02:30:08;9.60;74.70
7254;DHT22;4060;49.186;9.226;2024-01-07T02:32:38;9.60;74.70
7254;DHT22;4060;49.186;9.226;2024-01-07T02:35:07;9.60;74.80
7254;DHT22;4060;49.186;9.226;2024-01-07T02:37:36;9.60;74.80
7254;DHT22;4060;49.186;9.226;2024-01-07T02:40:06;9.60;74.80
7254;DHT22;4060;49.186;9.226;2024-01-07T02:42:37;9.60;74.80
7254;DHT22;4060;49.186;9.226;2024-01-07T02:45:07;9.60;74.80
7254;DHT22;4060;49.186;9.226;2024-01-07T02:47:36;9.60;74.80
7254;DHT22;4060;49.186;9.226;2024-01-07T02:50:08;9.60;74.80
7254;DHT22;4060;49.186;9.226;2024-01-07T02:52:37;9.60;74.70
7254;DHT22;4060;49.186;9.226;2024-01-07T02:55:08;9.60;74.70
7254;DHT22;4060;49.186;9.226;2024-01-07T02:57:39;9.60;74.70
7254;DHT22;4060;49.186;9.226;2024-01-07T03:00:09;9.60;74.60
7254;DHT22;4060;49.186;9.226;2024-01-07T03:02:38;9.60;74.70
7254;DHT22;4060;49.186;9.226;2024-01-07T03:05:08;9.60;74.70
7254;DHT22;4060;49.186;9.226;2024-01-07T03:07:38;9.60;74.70
7254;DHT22;4060;49.186;9.226;2024-01-07T03:10:08;9.60;74.60
7254;DHT22;4060;49.186;9.226;2024-01-07T03:12:38;9.60;74.60
7254;DHT22;4060;49.186;9.226;2024-01-07T03:15:08;9.60;74.60
7254;DHT22;4060;49.186;9.226;2024-01-07T03:17:37;9.60;74.60
7254;DHT22;4060;49.186;9.226;2024-01-07T03:20:07;9.60;74.60
7254;DHT22;4060;49.186;9.226;2024-01-07T03:22:36;9.60;74.70
7254;DHT22;4060;49.186;9.226;2024-01-07T03:25:06;9.60;74.60
7254;DHT22;4060;49.186;9.226;2024-01-07T03:27:35;9.60;74.60
7254;DHT22;4060;49.186;9.226;2024-01-07T03:30:08;9.60;74.70
7254;DHT22;4060;49.186;9.226;2024-01-07T03:32:38;9.60;74.70
7254;DHT22;4060;49.186;9.226;2024-01-07T03:35:08;9.60;74.60
7254;DHT22;4060;49.186;9.226;2024-01-07T03:37:38;9.60;74.60
7254;DHT22;4060;49.186;9.226;2024-01-07T03:40:11;9.60;74.60
7254;DHT22;4060;49.186;9.226;2024-01-07T03:42:42;9.50;75.30
7254;DHT22;4060;49.186;9.226;2024-01-07T03:45:13;9.50;74.50
7254;DHT22;4060;49.186;9.226;2024-01-07T03:47:42;9.50;74.50
7254;DHT22;4060;49.186;9.226;2024-01-07T03:50:11;9.50;74.50
7254;DHT22;4060;49.186;9.226;2024-01-07T03:52:40;9.60;74.60
7254;DHT22;4060;49.186;9.226;2024-01-07T03:55:10;9.50;74.50
7254;DHT22;4060;49.186;9.226;2024-01-07T03:57:39;9.50;74.40
7254;DHT22;4060;49.186;9.226;2024-01-07T04:00:09;9.60;74.60
7254;DHT22;4060;49.186;9.226;2024-01-07T04:02:40;9.50;74.40
7254;DHT22;4060;49.186;9.226;2024-01-07T04:05:09;9.50;74.40
7254;DHT22;4060;49.186;9.226;2024-01-07T04:07:39;9.50;74.40
7254;DHT22;4060;49.186;9.226;2024-01-07T04:10:09;9.60;74.60
7254;DHT22;4060;49.186;9.226;2024-01-07T04:12:39;9.50;74.50
7254;DHT22;4060;49.186;9.226;2024-01-07T04:15:10;9.50;74.40
7254;DHT22;4060;49.186;9.226;2024-01-07T04:17:41;9.50;74.40
7254;DHT22;4060;49.186;9.226;2024-01-07T04:20:13;9.50;74.40
7254;DHT22;4060;49.186;9.226;2024-01-07T04:22:42;9.50;74.50
7254;DHT22;4060;49.186;9.226;2024-01-07T04:25:11;9.50;74.40
7254;DHT22;4060;49.186;9.226;2024-01-07T04:27:40;9.50;74.40
7254;DHT22;4060;49.186;9.226;2024-01-07T04:30:09;9.50;74.40
7254;DHT22;4060;49.186;9.226;2024-01-07T04:32:40;9.50;74.40
7254;DHT22;4060;49.186;9.226;2024-01-07T04:35:09;9.50;74.40
7254;DHT22;4060;49.186;9.226;2024-01-07T04:37:38;9.50;74.40
7254;DHT22;4060;49.186;9.226;2024-01-07T04:40:08;9.50;74.40
7254;DHT22;4060;49.186;9.226;2024-01-07T04:42:37;9.50;74.40
7254;DHT22;4060;49.186;9.226;2024-01-07T04:45:07;9.50;74.40
7254;DHT22;4060;49.186;9.226;2024-01-07T04:47:36;9.50;74.40
7254;DHT22;4060;49.186;9.226;2024-01-07T04:50:08;9.50;74.40
7254;DHT22;4060;49.186;9.226;2024-01-07T04:52:38;9.50;74.40
7254;DHT22;4060;49.186;9.226;2024-01-07T04:55:07;9.50;74.40
7254;DHT22;4060;49.186;9.226;2024-01-07T04:57:37;9.50;74.40
7254;DHT22;4060;49.186;9.226;2024-01-07T05:00:07;9.50;74.40
7254;DHT22;4060;49.186;9.226;2024-01-07T05:02:37;9.50;74.40
7254;DHT22;4060;49.186;9.226;2024-01-07T05:05:08;9.50;74.40
7254;DHT22;4060;49.186;9.226;2024-01-07T05:07:38;9.50;74.40
7254;DHT22;4060;49.186;9.226;2024-01-07T05:10:07;9.50;74.40
7254;DHT22;4060;49.186;9.226;2024-01-07T05:12:37;9.50;74.40
7254;DHT22;4060;49.186;9.226;2024-01-07T05:15:07;9.50;74.40
7254;DHT22;4060;49.186;9.226;2024-01-07T05:17:37;9.50;74.40
7254;DHT22;4060;49.186;9.226;2024-01-07T05:20:09;9.50;74.40
7254;DHT22;4060;49.186;9.226;2024-01-07T05:22:38;9.50;74.40
7254;DHT22;4060;49.186;9.226;2024-01-07T05:25:07;9.40;74.30
7254;DHT22;4060;49.186;9.226;2024-01-07T05:27:37;9.50;74.40
7254;DHT22;4060;49.186;9.226;2024-01-07T05:30:07;9.50;74.40
7254;DHT22;4060;49.186;9.226;2024-01-07T05:32:36;9.50;74.40
7254;DHT22;4060;49.186;9.226;2024-01-07T05:35:07;9.50;75.20
7254;DHT22;4060;49.186;9.226;2024-01-07T05:37:38;9.40;74.40
7254;DHT22;4060;49.186;9.226;2024-01-07T05:40:08;9.40;74.40
7254;DHT22;4060;49.186;9.226;2024-01-07T05:42:38;9.40;74.30
7254;DHT22;4060;49.186;9.226;2024-01-07T05:45:07;9.40;74.30
7254;DHT22;4060;49.186;9.226;2024-01-07T05:47:37;9.50;75.20
7254;DHT22;4060;49.186;9.226;2024-01-07T05:50:09;9.40;74.30
7254;DHT22;4060;49.186;9.226;2024-01-07T05:52:42;9.40;74.40
7254;DHT22;4060;49.186;9.226;2024-01-07T05:55:12;9.40;74.40
7254;DHT22;4060;49.186;9.226;2024-01-07T05:57:42;9.40;74.40
7254;DHT22;4060;49.186;9.226;2024-01-07T06:00:12;9.40;74.40
7254;DHT22;4060;49.186;9.226;2024-01-07T06:02:42;9.40;74.40
7254;DHT22;4060;49.186;9.226;2024-01-07T06:05:13;9.40;74.40
7254;DHT22;4060;49.186;9.226;2024-01-07T06:07:42;9.40;74.40
7254;DHT22;4060;49.186;9.226;2024-01-07T06:10:11;9.40;74.40
7254;DHT22;4060;49.186;9.226;2024-01-07T06:12:41;9.40;74.40
7254;DHT22;4060;49.186;9.226;2024-01-07T06:15:11;9.40;74.40
7254;DHT22;4060;49.186;9.226;2024-01-07T06:17:40;9.40;74.40
7254;DHT22;4060;49.186;9.226;2024-01-07T06:20:12;9.40;74.40
7254;DHT22;4060;49.186;9.226;2024-01-07T06:22:41;9.40;74.40
7254;DHT22;4060;49.186;9.226;2024-01-07T06:25:11;9.40;74.40
7254;DHT22;4060;49.186;9.226;2024-01-07T06:27:40;9.40;74.40
7254;DHT22;4060;49.186;9.226;2024-01-07T06:30:10;9.40;74.40
7254;DHT22;4060;49.186;9.226;2024-01-07T06:32:40;9.40;74.30
7254;DHT22;4060;49.186;9.226;2024-01-07T06:35:09;9.40;74.30
7254;DHT22;4060;49.186;9.226;2024-01-07T06:37:40;9.40;74.30
7254;DHT22;4060;49.186;9.226;2024-01-07T06:40:10;9.40;74.40
7254;DHT22;4060;49.186;9.226;2024-01-07T06:42:40;9.40;74.20
7254;DHT22;4060;49.186;9.226;2024-01-07T06:45:10;9.40;74.20
7254;DHT22;4060;49.186;9.226;2024-01-07T06:47:39;9.40;74.20
7254;DHT22;4060;49.186;9.226;2024-01-07T06:50:09;9.40;74.20
7254;DHT22;4060;49.186;9.226;2024-01-07T06:52:40;9.40;74.20
7254;DHT22;4060;49.186;9.226;2024-01-07T06:55:09;9.40;74.20
7254;DHT22;4060;49.186;9.226;2024-01-07T06:57:39;9.40;74.10
7254;DHT22;4060;49.186;9.226;2024-01-07T07:00:08;9.40;74.20
7254;DHT22;4060;49.186;9.226;2024-01-07T07:02:38;9.40;74.10
7254;DHT22;4060;49.186;9.226;2024-01-07T07:05:07;9.40;74.10
7254;DHT22;4060;49.186;9.226;2024-01-07T07:07:39;9.40;74.00
7254;DHT22;4060;49.186;9.226;2024-01-07T07:10:08;9.40;74.00
7254;DHT22;4060;49.186;9.226;2024-01-07T07:12:37;9.40;74.00
7254;DHT22;4060;49.186;9.226;2024-01-07T07:15:07;9.40;74.00
7254;DHT22;4060;49.186;9.226;2024-01-07T07:17:37;9.40;73.90
7254;DHT22;4060;49.186;9.226;2024-01-07T07:20:07;9.40;73.80
7254;DHT22;4060;49.186;9.226;2024-01-07T07:22:36;9.40;73.80
7254;DHT22;4060;49.186;9.226;2024-01-07T07:25:08;9.40;73.70
7254;DHT22;4060;49.186;9.226;2024-01-07T07:27:38;9.40;73.70
7254;DHT22;4060;49.186;9.226;2024-01-07T07:30:08;9.40;73.60
7254;DHT22;4060;49.186;9.226;2024-01-07T07:32:40;9.40;73.60
7254;DHT22;4060;49.186;9.226;2024-01-07T07:35:09;9.40;73.40
7254;DHT22;4060;49.186;9.226;2024-01-07T07:37:38;9.40;73.30
7254;DHT22;4060;49.186;9.226;2024-01-07T07:40:09;9.40;73.30
7254;DHT22;4060;49.186;9.226;2024-01-07T07:42:40;9.40;73.30
7254;DHT22;4060;49.186;9.226;2024-01-07T07:45:10;9.30;73.10
7254;DHT22;4060;49.186;9.226;2024-01-07T07:47:39;9.40;73.20
7254;DHT22;4060;49.186;9.226;2024-01-07T07:50:11;9.40;73.10
7254;DHT22;4060;49.186;9.226;2024-01-07T07:52:42;9.40;73.20
7254;DHT22;4060;49.186;9.226;2024-01-07T07:55:14;9.40;73.10
7254;DHT22;4060;49.186;9.226;2024-01-07T07:57:43;9.30;73.00
7254;DHT22;4060;49.186;9.226;2024-01-07T08:00:14;9.30;72.90
7254;DHT22;4060;49.186;9.226;2024-01-07T08:02:43;9.30;72.90
7254;DHT22;4060;49.186;9.226;2024-01-07T08:05:12;9.30;72.80
7254;DHT22;4060;49.186;9.226;2024-01-07T08:07:41;9.40;73.00
7254;DHT22;4060;49.186;9.226;2024-01-07T08:10:11;9.30;72.90
7254;DHT22;4060;49.186;9.226;2024-01-07T08:12:41;9.40;72.90
7254;DHT22;4060;49.186;9.226;2024-01-07T08:15:11;9.40;72.80
7254;DHT22;4060;49.186;9.226;2024-01-07T08:17:40;9.30;72.70
7254;DHT22;4060;49.186;9.226;2024-01-07T08:20:11;9.30;72.60
7254;DHT22;4060;49.186;9.226;2024-01-07T08:22:41;9.30;72.60
7254;DHT22;4060;49.186;9.226;2024-01-07T08:25:10;9.30;72.50
7254;DHT22;4060;49.186;9.226;2024-01-07T08:27:44;9.30;72.50
7254;DHT22;4060;49.186;9.226;2024-01-07T08:30:13;9.30;72.40
7254;DHT22;4060;49.186;9.226;2024-01-07T08:32:42;9.30;72.30
7254;DHT22;4060;49.186;9.226;2024-01-07T08:35:12;9.30;72.20
7254;DHT22;4060;49.186;9.226;2024-01-07T08:37:41;9.30;72.10
7254;DHT22;4060;49.186;9.226;2024-01-07T08:40:11;9.30;71.90
7254;DHT22;4060;49.186;9.226;2024-01-07T08:42:44;9.30;71.90
7254;DHT22;4060;49.186;9.226;2024-01-07T08:45:13;9.30;71.80
7254;DHT22;4060;49.186;9.226;2024-01-07T08:47:42;9.30;71.80
7254;DHT22;4060;49.186;9.226;2024-01-07T08:50:11;9.30;71.70
7254;DHT22;4060;49.186;9.226;2024-01-07T08:52:41;9.20;71.50
7254;DHT22;4060;49.186;9.226;2024-01-07T08:55:10;9.30;71.50
7254;DHT22;4060;49.186;9.226;2024-01-07T08:57:43;9.30;71.40
7254;DHT22;4060;49.186;9.226;2024-01-07T09:00:17;9.20;71.30
7254;DHT22;4060;49.186;9.226;2024-01-07T09:02:45;9.20;71.10
7254;DHT22;4060;49.186;9.226;2024-01-07T09:05:13;9.30;71.10
7254;DHT22;4060;49.186;9.226;2024-01-07T09:07:41;9.20;70.90
7254;DHT22;4060;49.186;9.226;2024-01-07T09:10:10;9.20;70.80
7254;DHT22;4060;49.186;9.226;2024-01-07T09:12:39;9.20;70.70
7254;DHT22;4060;49.186;9.226;2024-01-07T09:15:12;9.20;70.60
7254;DHT22;4060;49.186;9.226;2024-01-07T09:17:41;9.20;70.30
7254;DHT22;4060;49.186;9.226;2024-01-07T09:20:12;9.20;70.30
7254;DHT22;4060;49.186;9.226;2024-01-07T09:22:41;9.20;70.10
7254;DHT22;4060;49.186;9.226;2024-01-07T09:25:10;9.20;70.00
7254;DHT22;4060;49.186;9.226;2024-01-07T09:27:40;9.20;69.80
7254;DHT22;4060;49.186;9.226;2024-01-07T09:30:12;9.20;69.70
7254;DHT22;4060;49.186;9.226;2024-01-07T09:32:42;9.20;69.70
7254;DHT22;4060;49.186;9.226;2024-01-07T09:35:12;9.20;69.60
7254;DHT22;4060;49.186;9.226;2024-01-07T09:37:41;9.20;69.50
7254;DHT22;4060;49.186;9.226;2024-01-07T09:40:12;9.10;69.40
7254;DHT22;4060;49.186;9.226;2024-01-07T09:42:41;9.20;69.50
7254;DHT22;4060;49.186;9.226;2024-01-07T09:45:14;9.20;69.50
7254;DHT22;4060;49.186;9.226;2024-01-07T09:47:45;9.20;69.40
7254;DHT22;4060;49.186;9.226;2024-01-07T09:50:14;9.20;69.40
7254;DHT22;4060;49.186;9.226;2024-01-07T09:52:44;9.20;69.40
7254;DHT22;4060;49.186;9.226;2024-01-07T09:55:21;9.20;70.10
7254;DHT22;4060;49.186;9.226;2024-01-07T09:57:52;9.20;69.20
7254;DHT22;4060;49.186;9.226;2024-01-07T10:00:23;9.20;69.30
7254;DHT22;4060;49.186;9.226;2024-01-07T10:02:53;9.20;69.30
7254;DHT22;4060;49.186;9.226;2024-01-07T10:05:23;9.20;69.30
7254;DHT22;4060;49.186;9.226;2024-01-07T10:07:53;9.20;69.30
7254;DHT22;4060;49.186;9.226;2024-01-07T10:10:24;9.20;69.40
7254;DHT22;4060;49.186;9.226;2024-01-07T10:12:53;9.20;69.50
7254;DHT22;4060;49.186;9.226;2024-01-07T10:15:25;9.20;69.40
7254;DHT22;4060;49.186;9.226;2024-01-07T10:17:56;9.20;69.40
7254;DHT22;4060;49.186;9.226;2024-01-07T10:20:33;9.20;69.30
7254;DHT22;4060;49.186;9.226;2024-01-07T10:23:03;9.20;69.20
7254;DHT22;4060;49.186;9.226;2024-01-07T10:25:36;9.20;69.20
7254;DHT22;4060;49.186;9.226;2024-01-07T10:28:05;9.20;69.10
7254;DHT22;4060;49.186;9.226;2024-01-07T10:30:39;9.20;69.10
7254;DHT22;4060;49.186;9.226;2024-01-07T10:33:09;9.20;69.20
7254;DHT22;4060;49.186;9.226;2024-01-07T10:35:38;9.20;69.00
7254;DHT22;4060;49.186;9.226;2024-01-07T10:38:09;9.20;69.00
7254;DHT22;4060;49.186;9.226;2024-01-07T10:40:38;9.10;68.80
7254;DHT22;4060;49.186;9.226;2024-01-07T10:43:09;9.20;68.90
7254;DHT22;4060;49.186;9.226;2024-01-07T10:45:40;9.10;68.70
7254;DHT22;4060;49.186;9.226;2024-01-07T10:48:10;9.10;68.70
7254;DHT22;4060;49.186;9.226;2024-01-07T10:50:40;9.20;68.80
7254;DHT22;4060;49.186;9.226;2024-01-07T10:53:12;9.10;68.50
7254;DHT22;4060;49.186;9.226;2024-01-07T10:55:48;9.10;68.50
7254;DHT22;4060;49.186;9.226;2024-01-07T10:58:21;9.10;68.40
7254;DHT22;4060;49.186;9.226;2024-01-07T11:00:53;9.10;68.40
7254;DHT22;4060;49.186;9.226;2024-01-07T11:03:31;9.10;68.40
7254;DHT22;4060;49.186;9.226;2024-01-07T11:06:05;9.10;68.50
7254;DHT22;4060;49.186;9.226;2024-01-07T11:08:39;9.10;68.40
7254;DHT22;4060;49.186;9.226;2024-01-07T11:11:14;9.20;68.60
7254;DHT22;4060;49.186;9.226;2024-01-07T11:13:44;9.10;68.40
7254;DHT22;4060;49.186;9.226;2024-01-07T11:16:42;9.10;68.30
7254;DHT22;4060;49.186;9.226;2024-01-07T11:19:14;9.10;69.00
7254;DHT22;4060;49.186;9.226;2024-01-07T11:21:43;9.10;68.20
7254;DHT22;4060;49.186;9.226;2024-01-07T11:24:38;9.10;68.10
7254;DHT22;4060;49.186;9.226;2024-01-07T11:27:10;9.10;68.10
7254;DHT22;4060;49.186;9.226;2024-01-07T11:29:41;9.10;68.10
7254;DHT22;4060;49.186;9.226;2024-01-07T11:32:17;9.10;68.10
7254;DHT22;4060;49.186;9.226;2024-01-07T11:34:47;9.10;68.10
7254;DHT22;4060;49.186;9.226;2024-01-07T11:37:20;9.10;68.00
7254;DHT22;4060;49.186;9.226;2024-01-07T11:39:51;9.10;68.00
7254;DHT22;4060;49.186;9.226;2024-01-07T11:42:21;9.10;67.90
7254;DHT22;4060;49.186;9.226;2024-01-07T11:44:51;9.10;67.70
7254;DHT22;4060;49.186;9.226;2024-01-07T11:47:23;9.10;67.80
7254;DHT22;4060;49.186;9.226;2024-01-07T11:49:54;9.10;67.80
7254;DHT22;4060;49.186;9.226;2024-01-07T11:52:23;9.00;67.60
7254;DHT22;4060;49.186;9.226;2024-01-07T11:54:52;9.00;67.40
7254;DHT22;4060;49.186;9.226;2024-01-07T11:57:22;9.00;67.40
7254;DHT22;4060;49.186;9.226;2024-01-07T11:59:52;9.00;67.30
7254;DHT22;4060;49.186;9.226;2024-01-07T12:02:23;9.00;67.20
7254;DHT22;4060;49.186;9.226;2024-01-07T12:04:57;9.00;67.20
7254;DHT22;4060;49.186;9.226;2024-01-07T12:07:27;9.10;67.10
7254;DHT22;4060;49.186;9.226;2024-01-07T12:09:57;9.00;66.90
7254;DHT22;4060;49.186;9.226;2024-01-07T12:12:27;9.00;67.00
7254;DHT22;4060;49.186;9.226;2024-01-07T12:14:57;9.00;66.90
7254;DHT22;4060;49.186;9.226;2024-01-07T12:17:29;9.00;66.80
7254;DHT22;4060;49.186;9.226;2024-01-07T12:19:58;9.00;66.80
7254;DHT22;4060;49.186;9.226;2024-01-07T12:22:27;9.00;66.80
7254;DHT22;4060;49.186;9.226;2024-01-07T12:25:02;9.00;66.90
7254;DHT22;4060;49.186;9.226;2024-01-07T12:27:31;9.00;66.80
7254;DHT22;4060;49.186;9.226;2024-01-07T12:30:01;9.00;66.90
7254;DHT22;4060;49.186;9.226;2024-01-07T12:32:32;9.00;66.90
7254;DHT22;4060;49.186;9.226;2024-01-07T12:35:01;9.00;66.80
7254;DHT22;4060;49.186;9.226;2024-01-07T12:37:31;9.00;66.80
7254;DHT22;4060;49.186;9.226;2024-01-07T12:39:59;9.00;66.60
7254;DHT22;4060;49.186;9.226;2024-01-07T12:42:29;9.00;66.50
7254;DHT22;4060;49.186;9.226;2024-01-07T12:44:58;9.00;66.50
7254;DHT22;4060;49.186;9.226;2024-01-07T12:47:27;9.00;66.50
7254;DHT22;4060;49.186;9.226;2024-01-07T12:49:57;9.00;66.60
7254;DHT22;4060;49.186;9.226;2024-01-07T12:52:26;9.00;66.50
7254;DHT22;4060;49.186;9.226;2024-01-07T12:54:55;9.00;66.50
7254;DHT22;4060;49.186;9.226;2024-01-07T12:57:24;8.90;66.50
7254;DHT22;4060;49.186;9.226;2024-01-07T12:59:54;8.90;66.50
7254;DHT22;4060;49.186;9.226;2024-01-07T13:02:22;8.90;67.10
7254;DHT22;4060;49.186;9.226;2024-01-07T13:04:52;8.90;66.40
7254;DHT22;4060;49.186;9.226;2024-01-07T13:07:24;8.90;66.30
7254;DHT22;4060;49.186;9.226;2024-01-07T13:09:53;8.90;66.30
7254;DHT22;4060;49.186;9.226;2024-01-07T13:12:22;8.90;66.20
7254;DHT22;4060;49.186;9.226;2024-01-07T13:14:51;8.90;66.10
7254;DHT22;4060;49.186;9.226;2024-01-07T13:17:20;8.90;66.00
7254;DHT22;4060;49.186;9.226;2024-01-07T13:19:50;8.90;66.00
7254;DHT22;4060;49.186;9.226;2024-01-07T13:22:20;8.90;65.90
7254;DHT22;4060;49.186;9.226;2024-01-07T13:24:51;8.90;65.80
7254;DHT22;4060;49.186;9.226;2024-01-07T13:27:21;8.90;65.80
7254;DHT22;4060;49.186;9.226;2024-01-07T13:29:50;8.90;65.70
7254;DHT22;4060;49.186;9.226;2024-01-07T13:32:20;8.80;65.50
7254;DHT22;4060;49.186;9.226;2024-01-07T13:34:49;8.80;65.30
7254;DHT22;4060;49.186;9.226;2024-01-07T13:37:18;8.90;65.30
7254;DHT22;4060;49.186;9.226;2024-01-07T13:39:49;8.90;65.30
7254;DHT22;4060;49.186;9.226;2024-01-07T13:42:18;8.80;65.20
7254;DHT22;4060;49.186;9.226;2024-01-07T13:44:47;8.80;65.10
7254;DHT22;4060;49.186;9.226;2024-01-07T13:47:16;8.80;65.20
7254;DHT22;4060;49.186;9.226;2024-01-07T13:49:45;8.80;65.20
7254;DHT22;4060;49.186;9.226;2024-01-07T13:52:14;8.80;65.10
7254;DHT22;4060;49.186;9.226;2024-01-07T13:54:44;8.80;65.10
7254;DHT22;4060;49.186;9.226;2024-01-07T13:57:14;8.80;65.10
7254;DHT22;4060;49.186;9.226;2024-01-07T13:59:43;8.80;65.10
7254;DHT22;4060;49.186;9.226;2024-01-07T14:02:12;8.80;65.10
7254;DHT22;4060;49.186;9.226;2024-01-07T14:04:46;8.80;65.00
7254;DHT22;4060;49.186;9.226;2024-01-07T14:07:18;8.70;64.80
7254;DHT22;4060;49.186;9.226;2024-01-07T14:09:49;8.80;64.90
7254;DHT22;4060;49.186;9.226;2024-01-07T14:12:21;8.80;64.90
7254;DHT22;4060;49.186;9.226;2024-01-07T14:14:51;8.80;64.90
7254;DHT22;4060;49.186;9.226;2024-01-07T14:17:20;8.70;64.80
7254;DHT22;4060;49.186;9.226;2024-01-07T14:19:49;8.70;64.70
7254;DHT22;4060;49.186;9.226;2024-01-07T14:22:20;8.70;64.80
7254;DHT22;4060;49.186;9.226;2024-01-07T14:24:50;8.70;64.70
7254;DHT22;4060;49.186;9.226;2024-01-07T14:27:20;8.70;64.60
7254;DHT22;4060;49.186;9.226;2024-01-07T14:29:50;8.70;64.60
7254;DHT22;4060;49.186;9.226;2024-01-07T14:32:19;8.70;64.60
7254;DHT22;4060;49.186;9.226;2024-01-07T14:34:49;8.70;64.50
7254;DHT22;4060;49.186;9.226;2024-01-07T14:37:18;8.70;64.40
7254;DHT22;4060;49.186;9.226;2024-01-07T14:39:47;8.70;64.30
7254;DHT22;4060;49.186;9.226;2024-01-07T14:42:16;8.70;64.30
7254;DHT22;4060;49.186;9.226;2024-01-07T14:44:47;8.70;64.20
7254;DHT22;4060;49.186;9.226;2024-01-07T14:47:17;8.70;64.20
7254;DHT22;4060;49.186;9.226;2024-01-07T14:49:46;8.70;64.10
7254;DHT22;4060;49.186;9.226;2024-01-07T14:52:16;8.60;63.90
7254;DHT22;4060;49.186;9.226;2024-01-07T14:54:45;8.60;63.90
7254;DHT22;4060;49.186;9.226;2024-01-07T14:57:14;8.60;63.90
7254;DHT22;4060;49.186;9.226;2024-01-07T14:59:43;8.60;63.90
7254;DHT22;4060;49.186;9.226;2024-01-07T15:02:14;8.60;63.90
7254;DHT22;4060;49.186;9.226;2024-01-07T15:04:44;8.60;64.60
7254;DHT22;4060;49.186;9.226;2024-01-07T15:07:12;8.60;63.70
7254;DHT22;4060;49.186;9.226;2024-01-07T15:09:42;8.60;63.70
7254;DHT22;4060;49.186;9.226;2024-01-07T15:12:10;8.60;63.70
7254;DHT22;4060;49.186;9.226;2024-01-07T15:14:39;8.60;63.80
7254;DHT22;4060;49.186;9.226;2024-01-07T15:17:07;8.60;63.70
7254;DHT22;4060;49.186;9.226;2024-01-07T15:19:38;8.60;64.00
7254;DHT22;4060;49.186;9.226;2024-01-07T15:22:07;8.50;63.60
7254;DHT22;4060;49.186;9.226;2024-01-07T15:24:36;8.50;63.70
7254;DHT22;4060;49.186;9.226;2024-01-07T15:27:05;8.60;63.70
7254;DHT22;4060;49.186;9.226;2024-01-07T15:29:34;8.60;63.60
7254;DHT22;4060;49.186;9.226;2024-01-07T15:32:04;8.50;63.30
7254;DHT22;4060;49.186;9.226;2024-01-07T15:34:33;8.50;63.20
7254;DHT22;4060;49.186;9.226;2024-01-07T15:37:04;8.50;63.20
7254;DHT22;4060;49.186;9.226;2024-01-07T15:39:35;8.50;63.20
7254;DHT22;4060;49.186;9.226;2024-01-07T15:42:04;8.50;63.20
7254;DHT22;4060;49.186;9.226;2024-01-07T15:44:33;8.50;63.10
7254;DHT22;4060;49.186;9.226;2024-01-07T15:47:02;8.50;63.00
7254;DHT22;4060;49.186;9.226;2024-01-07T15:49:32;8.50;62.90
7254;DHT22;4060;49.186;9.226;2024-01-07T15:52:03;8.50;62.90
7254;DHT22;4060;49.186;9.226;2024-01-07T15:54:33;8.50;62.80
7254;DHT22;4060;49.186;9.226;2024-01-07T15:57:02;8.40;62.60
7254;DHT22;4060;49.186;9.226;2024-01-07T15:59:32;8.40;62.40
7254;DHT22;4060;49.186;9.226;2024-01-07T16:02:01;8.40;62.30
7254;DHT22;4060;49.186;9.226;2024-01-07T16:04:30;8.40;62.20
7254;DHT22;4060;49.186;9.226;2024-01-07T16:06:59;8.40;62.20
7254;DHT22;4060;49.186;9.226;2024-01-07T16:09:30;8.40;62.20
7254;DHT22;4060;49.186;9.226;2024-01-07T16:12:02;8.40;63.00
7254;DHT22;4060;49.186;9.226;2024-01-07T16:14:31;8.40;62.30
7254;DHT22;4060;49.186;9.226;2024-01-07T16:17:02;8.30;62.20
7254;DHT22;4060;49.186;9.226;2024-01-07T16:19:31;8.40;62.10
7254;DHT22;4060;49.186;9.226;2024-01-07T16:22:00;8.40;62.10
7254;DHT22;4060;49.186;9.226;2024-01-07T16:24:36;8.30;61.90
7254;DHT22;4060;49.186;9.226;2024-01-07T16:27:05;8.30;61.90
7254;DHT22;4060;49.186;9.226;2024-01-07T16:29:36;8.30;61.80
7254;DHT22;4060;49.186;9.226;2024-01-07T16:32:06;8.30;61.60
7254;DHT22;4060;49.186;9.226;2024-01-07T16:34:35;8.30;61.50